sensor_id;sensor_type;location;lat;lon;timestamp;pressure;altitude;pressure_sealevel;temperature;humidity
20696;BME280;10507;52.754;13.040;2024-02-26T00:00:07;99861.94;;;0.57;100.00
20696;BME280;10507;52.754;13.040;2024-02-26T00:02:35;99859.63;;;0.41;100.00
20696;BME280;10507;52.754;13.040;2024-02-26T00:05:04;99859.75;;;0.35;100.00
20696;BME280;10507;52.754;13.040;2024-02-26T00:07:31;99866.75;;;0.36;100.00
20696;BME280;10507;52.754;13.040;2024-02-26T00:09:58;99865.91;;;0.34;100.00
20696;BME280;10507;52.754;13.040;2024-02-26T00:12:25;99860.75;;;0.30;100.00
20696;BME280;10507;52.754;13.040;2024-02-26T00:14:51;99866.00;;;0.30;100.00
20696;BME280;10507;52.754;13.040;2024-02-26T00:17:20;99864.25;;;0.30;100.00
20696;BME280;10507;52.754;13.040;2024-02-26T00:19:47;99853.97;;;0.18;100.00
20696;BME280;10507;52.754;13.040;2024-02-26T00:22:13;99855.72;;;0.19;100.00
20696;BME280;10507;52.754;13.040;2024-02-26T00:24:40;99856.59;;;0.19;100.00
20696;BME280;10507;52.754;13.040;2024-02-26T00:27:07;99854.88;;;0.17;100.00
20696;BME280;10507;52.754;13.040;2024-02-26T00:29:34;99853.00;;;0.24;100.00
20696;BME280;10507;52.754;13.040;2024-02-26T00:31:59;99844.28;;;0.23;100.00
20696;BME280;10507;52.754;13.040;2024-02-26T00:34:27;99843.31;;;0.27;100.00
20696;BME280;10507;52.754;13.040;2024-02-26T00:36:54;99843.44;;;0.21;100.00
20696;BME280;10507;52.754;13.040;2024-02-26T00:39:20;99844.56;;;0.09;100.00
20696;BME280;10507;52.754;13.040;2024-02-26T00:41:47;99843.81;;;0.03;100.00
20696;BME280;10507;52.754;13.040;2024-02-26T00:44:14;99846.25;;;0.12;100.00
20696;BME280;10507;52.754;13.040;2024-02-26T00:46:40;99844.47;;;0.14;100.00
20696;BME280;10507;52.754;13.040;2024-02-26T00:49:07;99836.31;;;0.26;100.00
20696;BME280;10507;52.754;13.040;2024-02-26T00:51:35;99834.59;;;0.25;100.00
20696;BME280;10507;52.754;13.040;2024-02-26T00:54:02;99836.59;;;0.14;100.00
20696;BME280;10507;52.754;13.040;2024-02-26T00:56:29;99829.72;;;0.07;100.00
20696;BME280;10507;52.754;13.040;2024-02-26T00:58:55;99827.34;;;-0.04;100.00
20696;BME280;10507;52.754;13.040;2024-02-26T01:01:22;99832.72;;;-0.12;100.00
20696;BME280;10507;52.754;13.040;2024-02-26T01:03:48;99832.63;;;-0.07;100.00
20696;BME280;10507;52.754;13.040;2024-02-26T01:06:15;99832.59;;;-0.04;100.00
20696;BME280;10507;52.754;13.040;2024-02-26T01:08:43;99826.31;;;0.02;100.00
20696;BME280;10507;52.754;13.040;2024-02-26T01:11:10;99823.06;;;-0.10;100.00
20696;BME280;10507;52.754;13.040;2024-02-26T01:13:36;99823.16;;;-0.14;100.00
20696;BME280;10507;52.754;13.040;2024-02-26T01:16:04;99812.63;;;-0.13;100.00
20696;BME280;10507;52.754;13.040;2024-02-26T01:18:30;99809.94;;;-0.10;100.00
20696;BME280;10507;52.754;13.040;2024-02-26T01:20:57;99817.81;;;-0.10;100.00
20696;BME280;10507;52.754;13.040;2024-02-26T01:23:24;99803.84;;;-0.12;100.00
20696;BME280;10507;52.754;13.040;2024-02-26T01:25:52;99816.88;;;-0.07;100.00
20696;BME280;10507;52.754;13.040;2024-02-26T01:28:18;99813.47;;;-0.11;100.00
20696;BME280;10507;52.754;13.040;2024-02-26T01:30:45;99809.97;;;-0.11;100.00
20696;BME280;10507;52.754;13.040;2024-02-26T01:33:12;99816.09;;;-0.11;100.00
20696;BME280;10507;52.754;13.040;2024-02-26T01:35:38;99819.47;;;-0.04;100.00
20696;BME280;10507;52.754;13.040;2024-02-26T01:38:05;99820.22;;;0.01;100.00
20696;BME280;10507;52.754;13.040;2024-02-26T01:40:32;99810.66;;;-0.02;100.00
20696;BME280;10507;52.754;13.040;2024-02-26T01:43:00;99807.09;;;0.03;100.00
20696;BME280;10507;52.754;13.040;2024-02-26T01:45:28;99801.78;;;0.04;100.00
20696;BME280;10507;52.754;13.040;2024-02-26T01:47:55;99796.78;;;-0.07;100.00
20696;BME280;10507;52.754;13.040;2024-02-26T01:50:22;99796.06;;;-0.16;100.00
20696;BME280;10507;52.754;13.040;2024-02-26T01:52:50;99792.66;;;-0.20;100.00
20696;BME280;10507;52.754;13.040;2024-02-26T01:55:17;99797.00;;;-0.19;100.00
20696;BME280;10507;52.754;13.040;2024-02-26T01:57:46;99789.25;;;-0.25;100.00
20696;BME280;10507;52.754;13.040;2024-02-26T02:00:16;99791.03;;;-0.26;100.00
20696;BME280;10507;52.754;13.040;2024-02-26T02:02:44;99794.56;;;-0.27;100.00
20696;BME280;10507;52.754;13.040;2024-02-26T02:05:13;99789.50;;;-0.36;100.00
20696;BME280;10507;52.754;13.040;2024-02-26T02:07:41;99792.97;;;-0.35;100.00
20696;BME280;10507;52.754;13.040;2024-02-26T02:10:08;99792.06;;;-0.34;100.00
20696;BME280;10507;52.754;13.040;2024-02-26T02:12:35;99791.28;;;-0.39;100.00
20696;BME280;10507;52.754;13.040;2024-02-26T02:15:04;99784.28;;;-0.39;100.00
20696;BME280;10507;52.754;13.040;2024-02-26T02:17:32;99788.69;;;-0.41;100.00
20696;BME280;10507;52.754;13.040;2024-02-26T02:19:59;99798.06;;;-0.29;100.00
20696;BME280;10507;52.754;13.040;2024-02-26T02:22:27;99791.03;;;-0.26;100.00
20696;BME280;10507;52.754;13.040;2024-02-26T02:24:54;99805.91;;;-0.26;100.00
20696;BME280;10507;52.754;13.040;2024-02-26T02:27:21;99805.13;;;-0.31;100.00
20696;BME280;10507;52.754;13.040;2024-02-26T02:29:47;99800.03;;;-0.39;100.00
20696;BME280;10507;52.754;13.040;2024-02-26T02:32:16;99794.19;;;-0.55;100.00
20696;BME280;10507;52.754;13.040;2024-02-26T02:34:44;99799.53;;;-0.61;100.00
20696;BME280;10507;52.754;13.040;2024-02-26T02:37:11;99792.59;;;-0.62;100.00
20696;BME280;10507;52.754;13.040;2024-02-26T02:39:39;99804.75;;;-0.58;100.00
20696;BME280;10507;52.754;13.040;2024-02-26T02:42:08;99801.19;;;-0.54;100.00
20696;BME280;10507;52.754;13.040;2024-02-26T02:44:35;99804.50;;;-0.46;100.00
20696;BME280;10507;52.754;13.040;2024-02-26T02:47:02;99804.38;;;-0.38;100.00
20696;BME280;10507;52.754;13.040;2024-02-26T02:49:28;99813.84;;;-0.31;100.00
20696;BME280;10507;52.754;13.040;2024-02-26T02:51:55;99816.13;;;-0.12;100.00
20696;BME280;10507;52.754;13.040;2024-02-26T02:54:22;99820.31;;;-0.04;100.00
20696;BME280;10507;52.754;13.040;2024-02-26T02:56:50;99813.41;;;-0.09;100.00
20696;BME280;10507;52.754;13.040;2024-02-26T02:59:17;99812.44;;;-0.02;100.00
20696;BME280;10507;52.754;13.040;2024-02-26T03:01:44;99807.38;;;-0.13;100.00
20696;BME280;10507;52.754;13.040;2024-02-26T03:04:11;99802.31;;;-0.22;100.00
20696;BME280;10507;52.754;13.040;2024-02-26T03:06:37;99798.97;;;-0.30;100.00
20696;BME280;10507;52.754;13.040;2024-02-26T03:09:04;99791.22;;;-0.36;100.00
20696;BME280;10507;52.754;13.040;2024-02-26T03:11:30;99794.19;;;-0.55;100.00
20696;BME280;10507;52.754;13.040;2024-02-26T03:13:59;99797.75;;;-0.59;100.00
20696;BME280;10507;52.754;13.040;2024-02-26T03:16:25;99792.75;;;-0.71;100.00
20696;BME280;10507;52.754;13.040;2024-02-26T03:18:53;99787.81;;;-0.88;100.00
20696;BME280;10507;52.754;13.040;2024-02-26T03:21:20;99788.88;;;-0.98;100.00
20696;BME280;10507;52.754;13.040;2024-02-26T03:23:47;99792.34;;;-0.98;100.00
20696;BME280;10507;52.754;13.040;2024-02-26T03:26:14;99798.50;;;-1.00;100.00
20696;BME280;10507;52.754;13.040;2024-02-26T03:28:40;99808.06;;;-0.96;100.00
20696;BME280;10507;52.754;13.040;2024-02-26T03:31:08;99808.16;;;-1.04;100.00
20696;BME280;10507;52.754;13.040;2024-02-26T03:33:36;99818.53;;;-0.96;100.00
20696;BME280;10507;52.754;13.040;2024-02-26T03:36:03;99820.09;;;-0.88;100.00
20696;BME280;10507;52.754;13.040;2024-02-26T03:38:29;99814.00;;;-0.88;100.00
20696;BME280;10507;52.754;13.040;2024-02-26T03:40:56;99825.41;;;-0.92;100.00
20696;BME280;10507;52.754;13.040;2024-02-26T03:43:23;99833.25;;;-0.91;100.00
20696;BME280;10507;52.754;13.040;2024-02-26T03:45:50;99835.88;;;-0.89;100.00
20696;BME280;10507;52.754;13.040;2024-02-26T03:48:18;99833.16;;;-0.85;100.00
20696;BME280;10507;52.754;13.040;2024-02-26T03:50:44;99828.72;;;-0.79;100.00
20696;BME280;10507;52.754;13.040;2024-02-26T03:53:11;99831.31;;;-0.78;100.00
20696;BME280;10507;52.754;13.040;2024-02-26T03:55:38;99836.41;;;-0.70;100.00
20696;BME280;10507;52.754;13.040;2024-02-26T03:58:07;99834.63;;;-0.68;100.00
20696;BME280;10507;52.754;13.040;2024-02-26T04:00:33;99832.84;;;-0.66;100.00
20696;BME280;10507;52.754;13.040;2024-02-26T04:03:00;99838.94;;;-0.64;100.00
20696;BME280;10507;52.754;13.040;2024-02-26T04:05:28;99833.69;;;-0.64;100.00
20696;BME280;10507;52.754;13.040;2024-02-26T04:07:55;99845.94;;;-0.65;100.00
20696;BME280;10507;52.754;13.040;2024-02-26T04:10:21;99848.50;;;-0.63;100.00
20696;BME280;10507;52.754;13.040;2024-02-26T04:12:48;99839.00;;;-0.69;100.00
20696;BME280;10507;52.754;13.040;2024-02-26T04:15:15;99848.47;;;-0.60;100.00
20696;BME280;10507;52.754;13.040;2024-02-26T04:17:42;99840.69;;;-0.65;100.00
20696;BME280;10507;52.754;13.040;2024-02-26T04:20:13;99845.97;;;-0.68;100.00
20696;BME280;10507;52.754;13.040;2024-02-26T04:22:42;99849.50;;;-0.70;100.00
20696;BME280;10507;52.754;13.040;2024-02-26T04:25:08;99854.06;;;-0.80;100.00
20696;BME280;10507;52.754;13.040;2024-02-26T04:27:35;99848.97;;;-0.91;100.00
20696;BME280;10507;52.754;13.040;2024-02-26T04:30:03;99849.13;;;-1.00;100.00
20696;BME280;10507;52.754;13.040;2024-02-26T04:32:30;99865.56;;;-0.89;100.00
20696;BME280;10507;52.754;13.040;2024-02-26T04:34:57;99868.22;;;-0.92;100.00
20696;BME280;10507;52.754;13.040;2024-02-26T04:37:23;99867.47;;;-1.00;100.00
20696;BME280;10507;52.754;13.040;2024-02-26T04:39:51;99875.31;;;-0.98;100.00
20696;BME280;10507;52.754;13.040;2024-02-26T04:42:18;99882.97;;;-0.86;100.00
20696;BME280;10507;52.754;13.040;2024-02-26T04:44:44;99868.06;;;-0.82;100.00
20696;BME280;10507;52.754;13.040;2024-02-26T04:47:11;99882.88;;;-0.80;100.00
20696;BME280;10507;52.754;13.040;2024-02-26T04:49:38;99877.59;;;-0.77;100.00
20696;BME280;10507;52.754;13.040;2024-02-26T04:52:05;99884.41;;;-0.67;100.00
20696;BME280;10507;52.754;13.040;2024-02-26T04:54:32;99881.88;;;-0.71;100.00
20696;BME280;10507;52.754;13.040;2024-02-26T04:57:00;99880.28;;;-0.81;100.00
20696;BME280;10507;52.754;13.040;2024-02-26T04:59:26;99887.28;;;-0.84;100.00
20696;BME280;10507;52.754;13.040;2024-02-26T05:01:53;99881.34;;;-0.95;100.00
20696;BME280;10507;52.754;13.040;2024-02-26T05:04:19;99897.78;;;-0.84;100.00
20696;BME280;10507;52.754;13.040;2024-02-26T05:06:46;99906.19;;;-0.63;100.00
20696;BME280;10507;52.754;13.040;2024-02-26T05:09:13;99919.97;;;-0.52;100.00
20696;BME280;10507;52.754;13.040;2024-02-26T05:11:39;99918.97;;;-0.43;100.00
20696;BME280;10507;52.754;13.040;2024-02-26T05:14:08;99918.03;;;-0.40;100.00
20696;BME280;10507;52.754;13.040;2024-02-26T05:16:35;99916.38;;;-0.45;100.00
20696;BME280;10507;52.754;13.040;2024-02-26T05:19:01;99916.31;;;-0.42;100.00
20696;BME280;10507;52.754;13.040;2024-02-26T05:21:28;99916.19;;;-0.34;100.00
20696;BME280;10507;52.754;13.040;2024-02-26T05:23:54;99916.91;;;-0.24;100.00
20696;BME280;10507;52.754;13.040;2024-02-26T05:26:21;99917.03;;;-0.32;100.00
20696;BME280;10507;52.754;13.040;2024-02-26T05:28:48;99915.41;;;-0.40;100.00
20696;BME280;10507;52.754;13.040;2024-02-26T05:31:17;99906.75;;;-0.44;100.00
20696;BME280;10507;52.754;13.040;2024-02-26T05:33:44;99906.84;;;-0.49;100.00
20696;BME280;10507;52.754;13.040;2024-02-26T05:36:17;99914.53;;;-0.39;100.00
20696;BME280;10507;52.754;13.040;2024-02-26T05:38:44;99919.00;;;-0.45;100.00
20696;BME280;10507;52.754;13.040;2024-02-26T05:41:11;99914.66;;;-0.47;100.00
20696;BME280;10507;52.754;13.040;2024-02-26T05:43:38;99918.25;;;-0.53;100.00
20696;BME280;10507;52.754;13.040;2024-02-26T05:46:05;99919.22;;;-0.58;100.00
20696;BME280;10507;52.754;13.040;2024-02-26T05:48:33;99939.00;;;-0.39;100.00
20696;BME280;10507;52.754;13.040;2024-02-26T05:50:59;99952.88;;;-0.32;100.00
20696;BME280;10507;52.754;13.040;2024-02-26T05:53:26;99963.13;;;-0.17;100.00
20696;BME280;10507;52.754;13.040;2024-02-26T05:55:52;99964.72;;;-0.10;100.00
20696;BME280;10507;52.754;13.040;2024-02-26T05:58:19;99979.50;;;-0.04;100.00
20696;BME280;10507;52.754;13.040;2024-02-26T06:00:46;99978.56;;;0.00;100.00
20696;BME280;10507;52.754;13.040;2024-02-26T06:03:12;99991.56;;;0.06;100.00
20696;BME280;10507;52.754;13.040;2024-02-26T06:05:40;99989.78;;;0.07;100.00
20696;BME280;10507;52.754;13.040;2024-02-26T06:08:07;99996.78;;;0.09;100.00
20696;BME280;10507;52.754;13.040;2024-02-26T06:10:34;99998.41;;;0.15;100.00
20696;BME280;10507;52.754;13.040;2024-02-26T06:13:00;99997.63;;;0.10;100.00
20696;BME280;10507;52.754;13.040;2024-02-26T06:15:27;99999.31;;;0.14;100.00
20696;BME280;10507;52.754;13.040;2024-02-26T06:17:53;100000.16;;;0.16;100.00
20696;BME280;10507;52.754;13.040;2024-02-26T06:20:20;99988.84;;;0.11;100.00
20696;BME280;10507;52.754;13.040;2024-02-26T06:22:48;99982.66;;;0.15;100.00
20696;BME280;10507;52.754;13.040;2024-02-26T06:25:15;99979.94;;;0.21;100.00
20696;BME280;10507;52.754;13.040;2024-02-26T06:27:41;99979.84;;;0.26;100.00
20696;BME280;10507;52.754;13.040;2024-02-26T06:30:09;99996.00;;;0.51;100.00
20696;BME280;10507;52.754;13.040;2024-02-26T06:32:36;100010.34;;;0.78;100.00
20696;BME280;10507;52.754;13.040;2024-02-26T06:35:04;100007.00;;;1.12;100.00
20696;BME280;10507;52.754;13.040;2024-02-26T06:37:32;99995.47;;;1.56;100.00
20696;BME280;10507;52.754;13.040;2024-02-26T06:40:00;99953.91;;;2.05;100.00
20696;BME280;10507;52.754;13.040;2024-02-26T06:42:29;99926.34;;;2.49;100.00
20696;BME280;10507;52.754;13.040;2024-02-26T06:44:55;99895.97;;;2.96;100.00
20696;BME280;10507;52.754;13.040;2024-02-26T06:47:22;99849.78;;;3.12;100.00
20696;BME280;10507;52.754;13.040;2024-02-26T06:49:49;99828.00;;;3.05;100.00
20696;BME280;10507;52.754;13.040;2024-02-26T06:52:15;99837.78;;;3.02;100.00
20696;BME280;10507;52.754;13.040;2024-02-26T06:54:42;99853.56;;;3.03;100.00
20696;BME280;10507;52.754;13.040;2024-02-26T06:57:11;99852.91;;;3.23;100.00
20696;BME280;10507;52.754;13.040;2024-02-26T06:59:38;99843.69;;;3.37;100.00
20696;BME280;10507;52.754;13.040;2024-02-26T07:02:05;99838.75;;;3.52;100.00
20696;BME280;10507;52.754;13.040;2024-02-26T07:04:32;99840.06;;;3.66;100.00
20696;BME280;10507;52.754;13.040;2024-02-26T07:06:59;99826.44;;;3.77;100.00
20696;BME280;10507;52.754;13.040;2024-02-26T07:09:25;99812.78;;;4.14;100.00
20696;BME280;10507;52.754;13.040;2024-02-26T07:11:52;99775.22;;;4.06;100.00
20696;BME280;10507;52.754;13.040;2024-02-26T07:14:20;99757.16;;;3.95;99.50
20696;BME280;10507;52.754;13.040;2024-02-26T07:16:47;99742.13;;;3.97;98.85
20696;BME280;10507;52.754;13.040;2024-02-26T07:19:13;99754.03;;;4.07;98.11
20696;BME280;10507;52.754;13.040;2024-02-26T07:21:40;99744.78;;;4.19;97.35
20696;BME280;10507;52.754;13.040;2024-02-26T07:24:06;99766.59;;;4.70;97.26
20696;BME280;10507;52.754;13.040;2024-02-26T07:26:33;99730.16;;;4.98;95.78
20696;BME280;10507;52.754;13.040;2024-02-26T07:29:00;99686.63;;;5.26;94.75
20696;BME280;10507;52.754;13.040;2024-02-26T07:31:28;99652.19;;;5.07;94.03
20696;BME280;10507;52.754;13.040;2024-02-26T07:33:54;99636.09;;;5.32;93.18
20696;BME280;10507;52.754;13.040;2024-02-26T07:36:21;99675.59;;;5.76;92.80
20696;BME280;10507;52.754;13.040;2024-02-26T07:38:48;99648.19;;;5.96;91.74
20696;BME280;10507;52.754;13.040;2024-02-26T07:41:14;99659.19;;;6.25;90.92
20696;BME280;10507;52.754;13.040;2024-02-26T07:43:41;99560.94;;;5.92;89.87
20696;BME280;10507;52.754;13.040;2024-02-26T07:46:07;99605.94;;;6.30;89.73
20696;BME280;10507;52.754;13.040;2024-02-26T07:48:35;99558.63;;;5.86;89.90
20696;BME280;10507;52.754;13.040;2024-02-26T07:51:02;99595.97;;;5.79;90.27
20696;BME280;10507;52.754;13.040;2024-02-26T07:53:29;99596.81;;;5.42;91.32
20696;BME280;10507;52.754;13.040;2024-02-26T07:55:56;99627.41;;;5.29;92.00
20696;BME280;10507;52.754;13.040;2024-02-26T07:58:23;99647.97;;;5.03;92.87
20696;BME280;10507;52.754;13.040;2024-02-26T08:00:50;99712.84;;;5.32;93.11
20696;BME280;10507;52.754;13.040;2024-02-26T08:03:16;99728.56;;;5.35;93.39
20696;BME280;10507;52.754;13.040;2024-02-26T08:05:45;99695.97;;;5.35;93.10
20696;BME280;10507;52.754;13.040;2024-02-26T08:08:11;99764.44;;;5.42;94.02
20696;BME280;10507;52.754;13.040;2024-02-26T08:10:38;99740.75;;;5.39;93.69
20696;BME280;10507;52.754;13.040;2024-02-26T08:13:04;99754.19;;;5.35;94.17
20696;BME280;10507;52.754;13.040;2024-02-26T08:15:31;99741.69;;;5.18;94.01
20696;BME280;10507;52.754;13.040;2024-02-26T08:17:59;99769.06;;;5.17;94.41
20696;BME280;10507;52.754;13.040;2024-02-26T08:20:27;99800.59;;;5.44;94.27
20696;BME280;10507;52.754;13.040;2024-02-26T08:22:55;99801.09;;;5.31;94.92
20696;BME280;10507;52.754;13.040;2024-02-26T08:25:22;99797.59;;;5.31;94.45
20696;BME280;10507;52.754;13.040;2024-02-26T08:27:49;99782.44;;;5.14;94.45
20696;BME280;10507;52.754;13.040;2024-02-26T08:30:16;99842.19;;;5.40;95.45
20696;BME280;10507;52.754;13.040;2024-02-26T08:32:43;99833.22;;;5.44;95.47
20696;BME280;10507;52.754;13.040;2024-02-26T08:35:09;99806.44;;;5.52;94.85
20696;BME280;10507;52.754;13.040;2024-02-26T08:37:36;99797.78;;;5.67;94.29
20696;BME280;10507;52.754;13.040;2024-02-26T08:40:06;99795.03;;;5.50;94.34
20696;BME280;10507;52.754;13.040;2024-02-26T08:42:33;99838.59;;;5.83;94.78
20696;BME280;10507;52.754;13.040;2024-02-26T08:45:00;99775.56;;;5.71;93.98
20696;BME280;10507;52.754;13.040;2024-02-26T08:47:26;99823.22;;;5.92;94.37
20696;BME280;10507;52.754;13.040;2024-02-26T08:49:53;99814.06;;;5.78;94.88
20696;BME280;10507;52.754;13.040;2024-02-26T08:52:20;99811.78;;;5.71;94.90
20696;BME280;10507;52.754;13.040;2024-02-26T08:54:47;99818.25;;;5.84;95.17
20696;BME280;10507;52.754;13.040;2024-02-26T08:57:15;99835.88;;;5.85;95.22
20696;BME280;10507;52.754;13.040;2024-02-26T08:59:41;99828.50;;;5.92;95.00
20696;BME280;10507;52.754;13.040;2024-02-26T09:02:08;99850.25;;;6.20;95.29
20696;BME280;10507;52.754;13.040;2024-02-26T09:04:35;99833.00;;;6.31;94.86
20696;BME280;10507;52.754;13.040;2024-02-26T09:07:02;99819.88;;;6.28;94.68
20696;BME280;10507;52.754;13.040;2024-02-26T09:09:29;99833.00;;;6.31;94.58
20696;BME280;10507;52.754;13.040;2024-02-26T09:11:55;99822.94;;;6.18;94.51
20696;BME280;10507;52.754;13.040;2024-02-26T09:14:23;99840.19;;;6.08;95.41
20696;BME280;10507;52.754;13.040;2024-02-26T09:16:50;99864.63;;;6.15;95.51
20696;BME280;10507;52.754;13.040;2024-02-26T09:19:17;99885.53;;;6.41;95.88
20696;BME280;10507;52.754;13.040;2024-02-26T09:21:44;99867.00;;;6.60;95.77
20696;BME280;10507;52.754;13.040;2024-02-26T09:24:11;99866.50;;;6.71;95.39
20696;BME280;10507;52.754;13.040;2024-02-26T09:26:38;99881.91;;;6.82;95.40
20696;BME280;10507;52.754;13.040;2024-02-26T09:29:04;99848.19;;;7.03;94.21
20696;BME280;10507;52.754;13.040;2024-02-26T09:31:32;99805.78;;;7.01;93.34
20696;BME280;10507;52.754;13.040;2024-02-26T09:34:00;99780.34;;;6.97;93.71
20696;BME280;10507;52.754;13.040;2024-02-26T09:36:27;99762.91;;;6.92;92.91
20696;BME280;10507;52.754;13.040;2024-02-26T09:38:53;99797.47;;;7.09;93.21
20696;BME280;10507;52.754;13.040;2024-02-26T09:41:20;99802.75;;;7.09;92.96
20696;BME280;10507;52.754;13.040;2024-02-26T09:43:48;99779.50;;;7.14;92.44
20696;BME280;10507;52.754;13.040;2024-02-26T09:46:17;99775.94;;;7.15;92.85
20696;BME280;10507;52.754;13.040;2024-02-26T09:48:47;99775.09;;;6.96;92.28
20696;BME280;10507;52.754;13.040;2024-02-26T09:51:14;99788.78;;;7.05;92.79
20696;BME280;10507;52.754;13.040;2024-02-26T09:53:43;99815.31;;;7.05;93.21
20696;BME280;10507;52.754;13.040;2024-02-26T09:56:11;99845.00;;;7.14;94.04
20696;BME280;10507;52.754;13.040;2024-02-26T09:58:38;99864.09;;;7.39;93.50
20696;BME280;10507;52.754;13.040;2024-02-26T10:01:10;99824.25;;;7.39;92.41
20696;BME280;10507;52.754;13.040;2024-02-26T10:03:38;99836.94;;;7.52;92.94
20696;BME280;10507;52.754;13.040;2024-02-26T10:06:08;99844.91;;;7.69;92.92
20696;BME280;10507;52.754;13.040;2024-02-26T10:08:35;99797.72;;;7.57;91.88
20696;BME280;10507;52.754;13.040;2024-02-26T10:11:02;99823.31;;;7.75;91.75
20696;BME280;10507;52.754;13.040;2024-02-26T10:13:29;99826.94;;;7.74;91.91
20696;BME280;10507;52.754;13.040;2024-02-26T10:15:56;99862.09;;;7.97;91.89
20696;BME280;10507;52.754;13.040;2024-02-26T10:18:24;99816.44;;;7.88;91.95
20696;BME280;10507;52.754;13.040;2024-02-26T10:20:59;99830.97;;;7.81;92.62
20696;BME280;10507;52.754;13.040;2024-02-26T10:23:28;99857.09;;;7.73;92.89
20696;BME280;10507;52.754;13.040;2024-02-26T10:25:54;99883.09;;;7.66;93.37
20696;BME280;10507;52.754;13.040;2024-02-26T10:28:22;99897.94;;;7.70;94.32
20696;BME280;10507;52.754;13.040;2024-02-26T10:30:48;99911.41;;;7.67;94.39
20696;BME280;10507;52.754;13.040;2024-02-26T10:33:15;99942.34;;;7.86;94.96
20696;BME280;10507;52.754;13.040;2024-02-26T10:35:45;99923.06;;;8.00;94.86
20696;BME280;10507;52.754;13.040;2024-02-26T10:38:12;99904.31;;;8.03;94.36
20696;BME280;10507;52.754;13.040;2024-02-26T10:40:40;99899.84;;;8.21;93.18
20696;BME280;10507;52.754;13.040;2024-02-26T10:43:07;99868.28;;;8.30;92.30
20696;BME280;10507;52.754;13.040;2024-02-26T10:45:33;99879.84;;;8.47;93.03
20696;BME280;10507;52.754;13.040;2024-02-26T10:48:02;99877.22;;;8.79;91.46
20696;BME280;10507;52.754;13.040;2024-02-26T10:50:29;99842.81;;;9.07;90.94
20696;BME280;10507;52.754;13.040;2024-02-26T10:52:56;99809.22;;;9.05;90.75
20696;BME280;10507;52.754;13.040;2024-02-26T10:55:23;99745.63;;;8.68;89.90
20696;BME280;10507;52.754;13.040;2024-02-26T10:57:52;99797.13;;;8.67;90.35
20696;BME280;10507;52.754;13.040;2024-02-26T11:00:19;99807.78;;;8.67;91.03
20696;BME280;10507;52.754;13.040;2024-02-26T11:02:46;99811.91;;;8.73;90.78
20696;BME280;10507;52.754;13.040;2024-02-26T11:05:14;99802.13;;;8.73;90.72
20696;BME280;10507;52.754;13.040;2024-02-26T11:07:41;99815.00;;;8.97;90.35
20696;BME280;10507;52.754;13.040;2024-02-26T11:10:09;99821.50;;;8.91;91.28
20696;BME280;10507;52.754;13.040;2024-02-26T11:12:39;99783.91;;;8.82;90.47
20696;BME280;10507;52.754;13.040;2024-02-26T11:15:08;99824.44;;;9.03;91.38
20696;BME280;10507;52.754;13.040;2024-02-26T11:17:36;99771.16;;;9.03;89.89
20696;BME280;10507;52.754;13.040;2024-02-26T11:20:05;99767.72;;;9.16;89.97
20696;BME280;10507;52.754;13.040;2024-02-26T11:22:36;99753.75;;;9.27;89.33
20696;BME280;10507;52.754;13.040;2024-02-26T11:25:04;99712.97;;;9.27;88.39
20696;BME280;10507;52.754;13.040;2024-02-26T11:27:35;99687.66;;;9.34;87.78
20696;BME280;10507;52.754;13.040;2024-02-26T11:30:04;99695.09;;;9.43;87.84
20696;BME280;10507;52.754;13.040;2024-02-26T11:32:37;99682.53;;;9.45;87.45
20696;BME280;10507;52.754;13.040;2024-02-26T11:35:04;99652.94;;;9.50;86.84
20696;BME280;10507;52.754;13.040;2024-02-26T11:37:32;99660.66;;;9.54;86.61
20696;BME280;10507;52.754;13.040;2024-02-26T11:39:59;99639.47;;;9.53;85.98
20696;BME280;10507;52.754;13.040;2024-02-26T11:42:26;99618.63;;;9.60;85.89
20696;BME280;10507;52.754;13.040;2024-02-26T11:44:54;99637.53;;;9.69;85.76
20696;BME280;10507;52.754;13.040;2024-02-26T11:47:22;99677.50;;;9.84;85.83
20696;BME280;10507;52.754;13.040;2024-02-26T11:49:50;99686.34;;;9.98;85.57
20696;BME280;10507;52.754;13.040;2024-02-26T11:52:17;99629.69;;;10.09;85.07
20696;BME280;10507;52.754;13.040;2024-02-26T11:54:45;99617.91;;;10.26;83.85
20696;BME280;10507;52.754;13.040;2024-02-26T11:57:22;99618.34;;;10.47;83.21
20696;BME280;10507;52.754;13.040;2024-02-26T11:59:48;99618.78;;;10.54;83.69
20696;BME280;10507;52.754;13.040;2024-02-26T12:02:40;99574.59;;;10.63;82.50
20696;BME280;10507;52.754;13.040;2024-02-26T12:05:11;99476.13;;;10.32;81.70
20696;BME280;10507;52.754;13.040;2024-02-26T12:07:40;99560.94;;;10.54;82.02
20696;BME280;10507;52.754;13.040;2024-02-26T12:10:21;99500.72;;;10.63;80.98
20696;BME280;10507;52.754;13.040;2024-02-26T12:12:53;99543.88;;;10.82;81.42
20696;BME280;10507;52.754;13.040;2024-02-26T12:15:22;99511.72;;;10.71;81.11
20696;BME280;10507;52.754;13.040;2024-02-26T12:17:49;99542.59;;;10.75;81.36
20696;BME280;10507;52.754;13.040;2024-02-26T12:20:19;99541.75;;;10.88;81.06
20696;BME280;10507;52.754;13.040;2024-02-26T12:22:46;99529.78;;;10.68;81.52
20696;BME280;10507;52.754;13.040;2024-02-26T12:25:14;99495.16;;;10.53;80.94
20696;BME280;10507;52.754;13.040;2024-02-26T12:27:40;99544.28;;;10.64;81.53
20696;BME280;10507;52.754;13.040;2024-02-26T12:30:08;99568.97;;;10.80;81.14
20696;BME280;10507;52.754;13.040;2024-02-26T12:32:35;99555.72;;;10.91;81.33
20696;BME280;10507;52.754;13.040;2024-02-26T12:35:02;99490.25;;;10.98;80.32
20696;BME280;10507;52.754;13.040;2024-02-26T12:37:30;99496.00;;;11.05;79.63
20696;BME280;10507;52.754;13.040;2024-02-26T12:39:57;99474.53;;;10.94;80.52
20696;BME280;10507;52.754;13.040;2024-02-26T12:42:23;99475.28;;;10.96;79.97
20696;BME280;10507;52.754;13.040;2024-02-26T12:44:50;99524.13;;;11.11;80.03
20696;BME280;10507;52.754;13.040;2024-02-26T12:47:17;99473.28;;;10.99;79.92
20696;BME280;10507;52.754;13.040;2024-02-26T12:49:47;99495.16;;;11.17;80.18